createdAt,value
2023-02-11T00:01:32.224Z,27.14
2023-02-11T00:04:05.556Z,27.40
2023-02-11T00:06:37.229Z,27.25
2023-02-11T00:09:10.436Z,27.29
2023-02-11T00:11:42.051Z,26.77
2023-02-11T00:14:13.688Z,26.77
2023-02-11T00:16:45.326Z,26.35
2023-02-11T00:19:16.929Z,27.39
2023-02-11T00:21:48.535Z,27.06
2023-02-11T00:24:20.155Z,27.04
2023-02-11T00:26:51.868Z,26.63
2023-02-11T00:29:23.686Z,27.12
2023-02-11T00:31:55.365Z,28.69
2023-02-11T00:34:28.931Z,28.46
2023-02-11T00:37:00.525Z,28.50
2023-02-11T00:39:32.588Z,28.27
2023-02-11T00:42:04.359Z,28.45
2023-02-11T00:44:35.988Z,28.23
2023-02-11T00:47:07.567Z,28.54
2023-02-11T00:49:39.300Z,28.75
2023-02-11T00:52:10.942Z,28.97
2023-02-11T00:54:42.600Z,28.82
2023-02-11T00:57:14.294Z,29.36
2023-02-11T00:59:45.967Z,28.83
2023-02-11T01:02:17.612Z,29.59
2023-02-11T01:04:49.267Z,30.35
2023-02-11T01:07:21.060Z,30.59
2023-02-11T01:09:53.473Z,30.53
2023-02-11T01:12:25.683Z,30.10
2023-02-11T01:14:57.291Z,30.02
2023-02-11T01:17:28.983Z,29.18
2023-02-11T01:20:07.385Z,29.43
2023-02-11T01:22:39.080Z,28.57
2023-02-11T01:25:10.812Z,28.71
2023-02-11T01:27:42.828Z,28.58
2023-02-11T01:30:14.835Z,28.57
2023-02-11T01:32:46.471Z,27.65
2023-02-11T01:35:18.153Z,28.03
2023-02-11T01:37:49.717Z,27.26
2023-02-11T01:40:22.857Z,27.49
2023-02-11T01:42:54.528Z,28.28
2023-02-11T01:45:44.533Z,28.42
2023-02-11T01:48:32.437Z,28.33
2023-02-11T01:51:16.780Z,27.77
2023-02-11T01:53:50.981Z,27.70
2023-02-11T01:56:26.121Z,28.76
2023-02-11T01:59:06.240Z,29.65
2023-02-11T02:01:44.887Z,30.01
2023-02-11T02:04:19.262Z,30.16
2023-02-11T02:06:57.980Z,30.18
2023-02-11T02:09:39.510Z,31.71
2023-02-11T02:12:11.214Z,34.14
2023-02-11T02:14:43.110Z,36.80
2023-02-11T02:17:36.961Z,36.30
2023-02-11T02:20:34.679Z,36.78
2023-02-11T02:23:27.750Z,35.99
2023-02-11T02:26:37.885Z,34.06
2023-02-11T02:29:46.652Z,34.23
2023-02-11T02:32:39.685Z,32.70
2023-02-11T02:35:39.077Z,33.20
2023-02-11T02:38:20.701Z,33.05
2023-02-11T02:40:56.609Z,32.98
2023-02-11T02:43:30.623Z,32.50
2023-02-11T02:46:25.121Z,31.57
2023-02-11T02:48:58.514Z,33.32
2023-02-11T02:51:58.253Z,34.32
2023-02-11T02:55:05.796Z,33.97
2023-02-11T02:57:58.612Z,32.06
2023-02-11T03:00:38.558Z,32.73
2023-02-11T03:03:29.276Z,33.17
2023-02-11T03:06:50.325Z,33.34
2023-02-11T03:09:40.213Z,33.14
2023-02-11T03:12:14.515Z,33.73
2023-02-11T03:14:52.292Z,34.31
2023-02-11T03:17:28.246Z,35.73
2023-02-11T03:20:02.259Z,34.42
2023-02-11T03:22:59.783Z,35.11
2023-02-11T03:25:48.755Z,34.64
2023-02-11T03:28:49.506Z,35.25
2023-02-11T03:32:04.250Z,35.14
2023-02-11T03:35:03.798Z,35.73
2023-02-11T03:37:43.718Z,34.49
2023-02-11T03:40:26.892Z,34.33
2023-02-11T03:43:09.714Z,33.27
2023-02-11T03:45:41.711Z,33.48
2023-02-11T03:48:40.694Z,33.19
2023-02-11T03:51:16.125Z,33.31
2023-02-11T03:53:52.596Z,32.63
2023-02-11T03:56:30.040Z,32.28
2023-02-11T03:59:01.766Z,33.07
2023-02-11T04:01:33.752Z,32.21
2023-02-11T04:04:06.520Z,32.62
2023-02-11T04:06:38.360Z,33.61
2023-02-11T04:09:11.424Z,32.94
2023-02-11T04:11:43.103Z,32.37
2023-02-11T04:14:14.757Z,33.74
2023-02-11T04:16:46.405Z,33.75
2023-02-11T04:19:18.004Z,33.66
2023-02-11T04:21:49.546Z,33.95
2023-02-11T04:24:21.139Z,33.65
2023-02-11T04:26:52.740Z,33.46
2023-02-11T04:29:24.548Z,33.94
2023-02-11T04:31:56.254Z,33.46
2023-02-11T04:34:28.091Z,33.50
2023-02-11T04:36:59.696Z,32.17
2023-02-11T04:39:31.326Z,33.40
2023-02-11T04:42:03.039Z,33.00
2023-02-11T04:44:34.638Z,33.21
2023-02-11T04:47:06.262Z,32.80
2023-02-11T04:49:37.866Z,32.90
2023-02-11T04:52:09.534Z,32.06
2023-02-11T04:54:41.168Z,31.41
2023-02-11T04:57:12.847Z,30.26
2023-02-11T04:59:44.722Z,30.59
2023-02-11T05:02:16.424Z,31.33
2023-02-11T05:04:48.062Z,31.64
2023-02-11T05:07:19.685Z,32.78
2023-02-11T05:09:51.255Z,34.74
2023-02-11T05:12:22.988Z,38.05
2023-02-11T05:14:54.583Z,37.42
2023-02-11T05:17:26.244Z,39.42
2023-02-11T05:19:57.859Z,39.31
2023-02-11T05:22:29.415Z,38.18
2023-02-11T05:25:01.015Z,35.58
2023-02-11T05:27:32.710Z,33.35
2023-02-11T05:30:06.152Z,33.11
2023-02-11T05:32:37.707Z,32.55
2023-02-11T05:35:09.333Z,32.14
2023-02-11T05:37:40.977Z,32.42
2023-02-11T05:40:12.702Z,32.76
2023-02-11T05:42:44.456Z,31.98
2023-02-11T05:45:16.273Z,32.34
2023-02-11T05:47:47.859Z,32.28
2023-02-11T05:50:19.641Z,31.97
2023-02-11T05:52:51.835Z,31.80
2023-02-11T05:55:23.611Z,32.24
2023-02-11T05:57:55.191Z,31.81
2023-02-11T06:00:27.470Z,31.60
2023-02-11T06:02:59.324Z,31.36
2023-02-11T06:05:33.330Z,31.65
2023-02-11T06:08:05.113Z,33.04
2023-02-11T06:10:36.849Z,33.47
2023-02-11T06:13:08.774Z,34.53
2023-02-11T06:15:40.415Z,34.19
2023-02-11T06:18:12.118Z,33.82
2023-02-11T06:20:43.715Z,34.45
2023-02-11T06:23:15.364Z,35.16
2023-02-11T06:25:46.945Z,36.37
2023-02-11T06:28:18.963Z,35.67
2023-02-11T06:30:50.591Z,33.75
2023-02-11T06:33:22.439Z,32.03
2023-02-11T06:35:53.966Z,33.35
2023-02-11T06:38:25.611Z,33.38
2023-02-11T06:40:57.348Z,32.73
2023-02-11T06:43:28.925Z,33.03
2023-02-11T06:46:00.553Z,32.98
2023-02-11T06:48:32.277Z,32.51
2023-02-11T06:51:06.554Z,33.48
2023-02-11T06:53:41.820Z,34.30
2023-02-11T06:56:19.622Z,34.12
2023-02-11T06:58:55.375Z,34.31
2023-02-11T07:01:27.718Z,32.40
2023-02-11T07:03:59.489Z,33.73
2023-02-11T07:06:31.085Z,36.08
2023-02-11T07:09:03.864Z,34.46
2023-02-11T07:11:35.713Z,34.54
2023-02-11T07:14:08.217Z,33.36
2023-02-11T07:16:39.922Z,32.97
2023-02-11T07:19:12.073Z,32.74
2023-02-11T07:21:43.794Z,32.42
2023-02-11T07:24:15.579Z,33.80
2023-02-11T07:26:47.162Z,33.89
2023-02-11T07:29:18.767Z,33.89
2023-02-11T07:31:50.471Z,34.17
2023-02-11T07:34:22.203Z,35.11
2023-02-11T07:36:53.828Z,34.25
2023-02-11T07:39:25.910Z,33.68
2023-02-11T07:41:58.593Z,34.00
2023-02-11T07:44:31.061Z,34.66
2023-02-11T07:47:03.324Z,34.76
2023-02-11T07:49:34.929Z,33.26
2023-02-11T07:52:06.531Z,31.55
2023-02-11T07:54:38.141Z,30.87
2023-02-11T07:57:09.738Z,29.33
2023-02-11T07:59:41.282Z,28.46
2023-02-11T08:02:13.008Z,29.49
2023-02-11T08:04:46.370Z,30.66
2023-02-11T08:07:18.474Z,30.49
2023-02-11T08:09:50.077Z,29.80
2023-02-11T08:12:21.715Z,28.42
2023-02-11T08:14:53.378Z,28.51
2023-02-11T08:17:25.011Z,29.71
2023-02-11T08:19:56.636Z,30.16
2023-02-11T08:22:30.886Z,30.82
2023-02-11T08:25:02.497Z,31.95
2023-02-11T08:27:34.131Z,32.04
2023-02-11T08:30:06.279Z,31.12
2023-02-11T08:32:37.815Z,30.28
2023-02-11T08:35:09.649Z,31.64
2023-02-11T08:37:41.223Z,34.22
2023-02-11T08:40:12.819Z,36.39
2023-02-11T08:42:44.536Z,35.60
2023-02-11T08:45:16.185Z,35.56
2023-02-11T08:47:47.848Z,35.67
2023-02-11T08:50:19.584Z,34.73
2023-02-11T08:52:51.154Z,35.04
2023-02-11T08:55:22.789Z,34.13
2023-02-11T08:57:54.339Z,34.40
2023-02-11T09:00:26.084Z,35.41
2023-02-11T09:02:57.763Z,34.85
2023-02-11T09:05:29.353Z,34.33
2023-02-11T09:08:00.909Z,34.02
2023-02-11T09:10:33.177Z,34.13
2023-02-11T09:13:05.190Z,33.98
2023-02-11T09:15:37.220Z,35.04
2023-02-11T09:18:08.931Z,35.01
2023-02-11T09:20:40.583Z,34.66
2023-02-11T09:23:12.197Z,35.34
2023-02-11T09:25:43.996Z,36.13
2023-02-11T09:28:15.628Z,36.70
2023-02-11T09:30:47.342Z,36.53
2023-02-11T09:33:18.969Z,35.12
2023-02-11T09:35:50.569Z,36.57
2023-02-11T09:38:22.191Z,36.13
2023-02-11T09:40:54.019Z,36.05
2023-02-11T09:43:47.141Z,34.85
2023-02-11T09:46:21.237Z,35.06
2023-02-11T09:48:56.186Z,35.09
2023-02-11T09:51:36.808Z,35.85
2023-02-11T09:54:28.728Z,34.12
2023-02-11T09:57:00.441Z,34.29
2023-02-11T09:59:32.122Z,34.16
2023-02-11T10:02:18.482Z,33.54
2023-02-11T10:05:30.502Z,34.88
2023-02-11T10:08:37.222Z,35.71
2023-02-11T10:11:31.297Z,34.56
2023-02-11T10:14:29.665Z,33.50
2023-02-11T10:17:16.542Z,34.93
2023-02-11T10:20:03.092Z,34.87
2023-02-11T10:22:45.316Z,33.89
2023-02-11T10:25:27.842Z,34.90
2023-02-11T10:28:02.385Z,34.94
2023-02-11T10:30:52.916Z,34.34
2023-02-11T10:33:31.040Z,33.24
2023-02-11T10:36:04.264Z,31.43
2023-02-11T10:38:36.713Z,31.23
2023-02-11T10:41:17.581Z,33.34
2023-02-11T10:43:50.981Z,33.31
2023-02-11T10:46:33.023Z,32.69
2023-02-11T10:49:04.743Z,32.71
2023-02-11T10:51:36.386Z,32.33
2023-02-11T10:54:07.957Z,32.47
2023-02-11T10:56:50.343Z,32.99
2023-02-11T10:59:30.479Z,32.38
2023-02-11T11:02:23.766Z,32.31
2023-02-11T11:05:02.923Z,32.64
2023-02-11T11:07:36.330Z,32.64
2023-02-11T11:10:39.674Z,31.82
2023-02-11T11:13:38.775Z,32.86
2023-02-11T11:16:13.456Z,34.70
2023-02-11T11:18:48.945Z,35.03
2023-02-11T11:21:30.286Z,36.24
2023-02-11T11:24:04.126Z,35.13
2023-02-11T11:26:40.816Z,35.35
2023-02-11T11:29:26.718Z,35.17
2023-02-11T11:32:02.570Z,35.71
2023-02-11T11:34:39.848Z,35.50
2023-02-11T11:37:23.768Z,35.59
2023-02-11T11:40:10.706Z,36.02
2023-02-11T11:42:43.267Z,35.94
2023-02-11T11:45:17.932Z,36.71
2023-02-11T11:48:24.532Z,35.35
2023-02-11T11:51:05.849Z,36.53
2023-02-11T11:54:12.893Z,36.18
2023-02-11T11:56:59.943Z,36.46
2023-02-11T11:59:32.163Z,37.04
2023-02-11T12:02:25.485Z,36.04
2023-02-11T12:05:09.428Z,36.14
2023-02-11T12:07:59.022Z,36.88
2023-02-11T12:11:05.242Z,35.89
2023-02-11T12:14:23.314Z,35.55
2023-02-11T12:17:22.847Z,34.88
2023-02-11T12:20:19.059Z,35.44
2023-02-11T12:22:50.593Z,35.79
2023-02-11T12:25:28.479Z,35.18
2023-02-11T12:28:18.035Z,36.24
2023-02-11T12:30:57.213Z,35.92
2023-02-11T12:33:51.614Z,35.22
2023-02-11T12:36:50.503Z,35.14
2023-02-11T12:39:27.972Z,36.02
2023-02-11T12:42:23.052Z,36.04
2023-02-11T12:45:12.747Z,36.16
2023-02-11T12:48:12.966Z,35.99
2023-02-11T12:51:01.212Z,35.74
2023-02-11T12:53:48.818Z,35.89
2023-02-11T12:56:36.336Z,36.52
2023-02-11T12:59:46.896Z,35.58
2023-02-11T13:02:28.921Z,36.41
2023-02-11T13:05:17.498Z,35.63
2023-02-11T13:07:53.410Z,35.24
2023-02-11T13:10:35.263Z,36.17
2023-02-11T13:13:36.065Z,35.51
2023-02-11T13:16:30.224Z,35.76
2023-02-11T13:19:27.947Z,35.31
2023-02-11T13:22:19.982Z,34.75
2023-02-11T13:24:58.774Z,34.76
2023-02-11T13:27:45.553Z,34.39
2023-02-11T13:30:34.330Z,34.82
2023-02-11T13:33:17.112Z,33.66
2023-02-11T13:36:08.605Z,33.27
2023-02-11T13:38:40.512Z,33.32
2023-02-11T13:41:26.943Z,32.42
2023-02-11T13:44:24.617Z,31.89
2023-02-11T13:46:58.387Z,31.04
2023-02-11T13:49:32.656Z,30.02
2023-02-11T13:52:16.386Z,29.80
2023-02-11T13:54:52.388Z,30.79
2023-02-11T13:57:29.332Z,30.08
2023-02-11T14:00:25.109Z,29.39
2023-02-11T14:03:12.058Z,29.65
2023-02-11T14:06:11.690Z,30.26
2023-02-11T14:09:14.344Z,29.46
2023-02-11T14:11:47.848Z,30.22
2023-02-11T14:14:25.546Z,29.88
2023-02-11T14:16:59.983Z,29.40
2023-02-11T14:19:41.024Z,29.41
2023-02-11T14:22:15.341Z,28.36
2023-02-11T14:24:52.605Z,28.03
2023-02-11T14:27:44.717Z,27.73
2023-02-11T14:30:55.937Z,27.92
2023-02-11T14:33:36.517Z,28.47
2023-02-11T14:36:37.122Z,28.04
2023-02-11T14:39:32.523Z,28.28
2023-02-11T14:42:04.789Z,27.43
2023-02-11T14:44:36.625Z,27.96
2023-02-11T14:47:20.921Z,27.09
2023-02-11T14:49:54.170Z,27.07
2023-02-11T14:52:27.503Z,26.41
2023-02-11T14:55:06.211Z,26.02
2023-02-11T14:57:37.837Z,26.44
2023-02-11T15:00:21.283Z,26.02
2023-02-11T15:02:52.995Z,26.03
2023-02-11T15:05:27.424Z,26.11
2023-02-11T15:08:04.465Z,26.16
2023-02-11T15:10:43.037Z,26.77
2023-02-11T15:13:20.991Z,26.77
2023-02-11T15:16:00.661Z,27.09
2023-02-11T15:18:56.344Z,27.03
2023-02-11T15:21:32.566Z,26.57
2023-02-11T15:24:25.164Z,26.47
2023-02-11T15:27:01.421Z,25.75
2023-02-11T15:29:44.015Z,25.86
2023-02-11T15:32:18.638Z,25.14
2023-02-11T15:34:53.709Z,25.26
2023-02-11T15:37:30.553Z,25.01
2023-02-11T15:40:20.872Z,24.18
2023-02-11T15:43:04.466Z,23.53
2023-02-11T15:45:43.823Z,24.09
2023-02-11T15:48:37.558Z,23.89
2023-02-11T15:51:27.049Z,24.91
2023-02-11T15:54:02.581Z,27.05
2023-02-11T15:56:40.926Z,27.77
2023-02-11T15:59:20.683Z,27.86
2023-02-11T16:01:54.910Z,27.50
2023-02-11T16:04:28.011Z,26.41
2023-02-11T16:06:59.646Z,27.87
2023-02-11T16:09:35.235Z,27.76
2023-02-11T16:12:25.211Z,28.20
2023-02-11T16:14:56.926Z,27.48
2023-02-11T16:17:29.716Z,27.14
2023-02-11T16:20:01.398Z,27.18
2023-02-11T16:22:33.263Z,28.00
2023-02-11T16:25:05.215Z,28.35
2023-02-11T16:27:41.401Z,28.57
2023-02-11T16:30:33.298Z,29.00
2023-02-11T16:33:05.113Z,28.88
2023-02-11T16:35:36.730Z,29.16
2023-02-11T16:38:08.294Z,28.58
2023-02-11T16:40:39.964Z,28.35
2023-02-11T16:43:12.252Z,28.07
2023-02-11T16:45:43.890Z,28.61
2023-02-11T16:48:18.318Z,28.76
2023-02-11T16:50:53.400Z,28.08
2023-02-11T16:53:25.365Z,28.65
2023-02-11T16:55:56.946Z,29.38
2023-02-11T16:58:28.584Z,28.57
2023-02-11T17:01:00.724Z,28.21
2023-02-11T17:03:32.797Z,28.15
2023-02-11T17:06:04.926Z,28.08
2023-02-11T17:08:36.562Z,27.41
2023-02-11T17:11:08.185Z,27.47
2023-02-11T17:13:39.877Z,27.50
2023-02-11T17:16:19.386Z,27.91
2023-02-11T17:18:51.079Z,27.35
2023-02-11T17:21:22.665Z,27.59
2023-02-11T17:23:54.321Z,28.00
2023-02-11T17:26:26.136Z,27.28
2023-02-11T17:28:57.725Z,27.83
2023-02-11T17:31:29.404Z,28.34
2023-02-11T17:34:01.260Z,27.98
2023-02-11T17:36:33.089Z,28.03
2023-02-11T17:39:08.108Z,26.94
2023-02-11T17:41:40.750Z,27.70
2023-02-11T17:44:12.613Z,28.95
2023-02-11T17:46:44.254Z,29.00
2023-02-11T17:49:15.855Z,28.34
2023-02-11T17:51:47.540Z,29.52
2023-02-11T17:54:19.562Z,31.17
2023-02-11T17:56:51.349Z,31.12
2023-02-11T17:59:23.018Z,31.82
2023-02-11T18:01:54.556Z,33.03
2023-02-11T18:04:26.255Z,33.35
2023-02-11T18:06:58.142Z,35.40
2023-02-11T18:09:29.759Z,38.19
2023-02-11T18:12:01.595Z,37.69
2023-02-11T18:14:33.897Z,35.56
2023-02-11T18:17:05.535Z,34.48
2023-02-11T18:19:37.115Z,34.81
2023-02-11T18:22:08.736Z,36.68
2023-02-11T18:24:41.495Z,35.30
2023-02-11T18:27:13.411Z,35.12
2023-02-11T18:29:45.361Z,33.76
2023-02-11T18:32:17.042Z,35.11
2023-02-11T18:34:48.613Z,37.43
2023-02-11T18:37:20.199Z,38.56
2023-02-11T18:39:51.872Z,36.22
2023-02-11T18:42:23.522Z,34.02
2023-02-11T18:44:55.130Z,31.77
2023-02-11T18:47:26.729Z,32.00
2023-02-11T18:49:58.275Z,31.88
2023-02-11T18:52:29.866Z,32.22
2023-02-11T18:55:01.468Z,32.80
2023-02-11T18:57:33.296Z,32.66
2023-02-11T19:00:07.885Z,31.91
2023-02-11T19:02:39.532Z,31.54
2023-02-11T19:05:11.565Z,32.68
2023-02-11T19:07:43.166Z,32.98
2023-02-11T19:10:14.806Z,33.41
2023-02-11T19:12:46.434Z,33.63
2023-02-11T19:15:18.185Z,35.18
2023-02-11T19:17:49.850Z,39.48
2023-02-11T19:20:21.499Z,42.74
2023-02-11T19:22:53.114Z,44.42
2023-02-11T19:25:24.665Z,46.17
2023-02-11T19:27:56.293Z,44.99
2023-02-11T19:30:28.154Z,41.90
2023-02-11T19:32:59.728Z,42.20
2023-02-11T19:35:34.518Z,41.52
2023-02-11T19:38:06.188Z,42.35
2023-02-11T19:40:37.727Z,41.62
2023-02-11T19:43:09.265Z,41.97
2023-02-11T19:45:40.826Z,43.34
2023-02-11T19:48:12.820Z,43.51
2023-02-11T19:50:44.481Z,43.43
2023-02-11T19:53:16.123Z,42.59
2023-02-11T19:55:48.822Z,41.26
2023-02-11T19:58:20.467Z,39.65
2023-02-11T20:00:52.056Z,39.36
2023-02-11T20:03:23.622Z,39.37
2023-02-11T20:05:55.264Z,39.77
2023-02-11T20:08:26.800Z,42.79
2023-02-11T20:11:04.990Z,41.81
2023-02-11T20:13:37.928Z,40.68
2023-02-11T20:16:12.954Z,38.85
2023-02-11T20:18:45.793Z,36.25
2023-02-11T20:21:20.968Z,36.29
2023-02-11T20:23:53.536Z,36.22
2023-02-11T20:26:31.725Z,36.46
2023-02-11T20:29:03.391Z,35.71
2023-02-11T20:31:35.122Z,35.14
2023-02-11T20:34:06.812Z,35.06
2023-02-11T20:36:38.481Z,34.34
2023-02-11T20:39:11.426Z,36.24
2023-02-11T20:41:43.042Z,36.89
2023-02-11T20:44:14.820Z,37.78
2023-02-11T20:46:46.527Z,36.93
2023-02-11T20:49:22.202Z,35.64
2023-02-11T20:51:54.444Z,34.28
2023-02-11T20:54:26.418Z,34.25
2023-02-11T20:56:58.025Z,34.74
2023-02-11T20:59:29.692Z,33.61
2023-02-11T21:02:01.347Z,34.01
2023-02-11T21:04:33.683Z,34.38
2023-02-11T21:07:05.365Z,33.65
2023-02-11T21:09:36.912Z,33.14
2023-02-11T21:12:08.491Z,32.65
2023-02-11T21:14:40.077Z,32.55
2023-02-11T21:17:12.135Z,31.30
2023-02-11T21:19:44.008Z,30.59
2023-02-11T21:22:15.647Z,30.51
2023-02-11T21:24:47.377Z,31.36
2023-02-11T21:27:18.990Z,31.79
2023-02-11T21:29:54.576Z,31.77
2023-02-11T21:32:26.648Z,31.89
2023-02-11T21:35:00.546Z,31.10
2023-02-11T21:37:33.558Z,30.52
2023-02-11T21:40:05.781Z,29.61
2023-02-11T21:42:37.366Z,28.95
2023-02-11T21:45:09.345Z,29.91
2023-02-11T21:47:40.979Z,30.96
2023-02-11T21:50:12.577Z,32.51
2023-02-11T21:52:44.222Z,34.31
2023-02-11T21:55:16.076Z,35.48
2023-02-11T21:57:47.673Z,35.56
2023-02-11T22:00:19.587Z,36.16
2023-02-11T22:02:51.338Z,35.49
2023-02-11T22:05:23.451Z,34.98
2023-02-11T22:07:55.673Z,34.05
2023-02-11T22:10:27.438Z,34.73
2023-02-11T22:12:59.132Z,35.03
2023-02-11T22:15:30.864Z,34.51
2023-02-11T22:18:02.459Z,32.36
2023-02-11T22:20:34.114Z,30.51
2023-02-11T22:23:05.791Z,30.37
2023-02-11T22:25:37.352Z,28.46
2023-02-11T22:28:08.966Z,27.42
2023-02-11T22:30:40.646Z,27.18
2023-02-11T22:33:12.261Z,25.35
2023-02-11T22:35:43.924Z,25.18
2023-02-11T22:38:15.566Z,24.96
2023-02-11T22:40:47.193Z,24.99
2023-02-11T22:43:18.856Z,24.42
2023-02-11T22:45:50.914Z,25.18
2023-02-11T22:48:23.239Z,24.90
2023-02-11T22:50:54.993Z,24.77
2023-02-11T22:53:26.558Z,23.89
2023-02-11T22:56:05.313Z,23.43
2023-02-11T22:58:37.213Z,23.34
2023-02-11T23:01:08.825Z,23.31
2023-02-11T23:03:40.646Z,23.53
2023-02-11T23:06:13.197Z,23.78
2023-02-11T23:08:45.666Z,23.68
2023-02-11T23:11:21.293Z,23.47
2023-02-11T23:13:53.904Z,24.65
2023-02-11T23:16:30.205Z,23.94
2023-02-11T23:19:06.476Z,23.58
2023-02-11T23:21:39.056Z,23.09
2023-02-11T23:24:14.807Z,22.62
2023-02-11T23:26:46.387Z,22.47
2023-02-11T23:29:17.954Z,22.66
2023-02-11T23:31:49.918Z,22.54
2023-02-11T23:34:21.618Z,22.72
2023-02-11T23:36:53.315Z,23.15
2023-02-11T23:39:25.244Z,22.46
2023-02-11T23:41:56.816Z,22.91
2023-02-11T23:44:28.476Z,22.20
2023-02-11T23:47:00.115Z,22.03
2023-02-11T23:49:31.754Z,23.55
2023-02-11T23:52:03.845Z,22.26
2023-02-11T23:54:35.474Z,22.30
2023-02-11T23:57:07.031Z,22.27
2023-02-11T23:59:38.689Z,22.20
